Time;durP1;ratioP1;P1;durP2;ratioP2;P2;SDS_P1;SDS_P2;PMS_P1;PMS_P2;Temp;Humidity;BMP_temperature;BMP_pressure;BME280_temperature;BME280_humidity;BME280_pressure;Samples;Min_cycle;Max_cycle;Signal;HPM_P1;HPM_P2
2022/08/18 00:02:11;;;;;;;;;;;22.20;80.50;;;;;;5067570;28;20395;-61
2022/08/18 00:04:37;;;;;;;;;;;22.20;80.40;;;;;;5080985;28;19912;-66
2022/08/18 00:07:07;;;;;;;;;;;22.10;80.30;;;;;;5068036;28;19992;-60
2022/08/18 00:09:34;;;;;;;;;;;22.20;80.30;;;;;;5075949;28;20403;-61
2022/08/18 00:12:02;;;;;;;;;;;22.10;80.20;;;;;;5079724;28;20002;-60
2022/08/18 00:14:27;;;;;;;;;;;22.20;80.30;;;;;;5079286;28;19920;-67
2022/08/18 00:16:53;;;;;;;;;;;22.10;80.30;;;;;;5073764;28;19916;-60
2022/08/18 00:19:19;;;;;;;;;;;22.10;80.30;;;;;;5076667;28;20352;-67
2022/08/18 00:21:44;;;;;;;;;;;22.10;80.30;;;;;;5071188;28;19917;-60
2022/08/18 00:24:10;;;;;;;;;;;22.10;80.30;;;;;;5073227;28;19927;-60
2022/08/18 00:26:35;;;;;;;;;;;22.10;80.20;;;;;;5073900;28;19919;-67
2022/08/18 00:29:01;;;;;;;;;;;22.10;80.30;;;;;;5077618;28;20145;-67
2022/08/18 00:31:28;;;;;;;;;;;22.00;80.30;;;;;;5080006;28;19915;-60
2022/08/18 00:33:53;;;;;;;;;;;22.00;80.50;;;;;;5069881;28;19921;-67
2022/08/18 00:36:19;;;;;;;;;;;22.00;80.60;;;;;;5084415;28;19977;-60
2022/08/18 00:38:45;;;;;;;;;;;22.00;80.60;;;;;;5071709;28;19920;-66
2022/08/18 00:41:10;;;;;;;;;;;22.00;80.60;;;;;;5071299;28;20042;-66
2022/08/18 00:43:40;;;;;;;;;;;22.00;80.60;;;;;;5076758;28;20375;-67
2022/08/18 00:46:07;;;;;;;;;;;22.00;80.50;;;;;;5069247;28;19935;-67
2022/08/18 00:48:33;;;;;;;;;;;21.90;80.50;;;;;;5070940;28;19916;-67
2022/08/18 00:51:01;;;;;;;;;;;21.90;80.50;;;;;;5068640;28;20566;-60
2022/08/18 00:53:27;;;;;;;;;;;21.90;80.50;;;;;;5069408;28;19916;-60
2022/08/18 00:55:54;;;;;;;;;;;21.90;80.60;;;;;;5070855;28;20010;-60
2022/08/18 00:58:37;;;;;;;;;;;21.90;80.60;;;;;;5068128;28;19912;-66
2022/08/18 01:01:04;;;;;;;;;;;21.90;80.60;;;;;;5082077;28;20320;-67
2022/08/18 01:03:32;;;;;;;;;;;21.90;80.60;;;;;;5069027;28;20003;-67
2022/08/18 01:05:57;;;;;;;;;;;21.90;80.60;;;;;;5068779;28;19932;-67
2022/08/18 01:08:23;;;;;;;;;;;21.90;80.60;;;;;;5066990;28;19917;-60
2022/08/18 01:10:49;;;;;;;;;;;21.90;80.70;;;;;;5070309;28;19916;-60
2022/08/18 01:13:15;;;;;;;;;;;21.90;80.80;;;;;;5073499;28;20387;-60
2022/08/18 01:15:40;;;;;;;;;;;21.80;80.70;;;;;;5073235;28;19983;-60
2022/08/18 01:24:11;;;;;;;;;;;21.80;80.90;;;;;;5065862;28;19917;-67
2022/08/18 01:26:38;;;;;;;;;;;21.70;80.90;;;;;;5066968;28;19928;-67
2022/08/18 01:29:04;;;;;;;;;;;21.70;80.90;;;;;;5061480;28;19917;-67
2022/08/18 01:31:33;;;;;;;;;;;21.70;80.90;;;;;;5071253;28;20352;-67
2022/08/18 01:34:00;;;;;;;;;;;21.60;80.80;;;;;;5073092;28;19943;-67
2022/08/18 01:36:25;;;;;;;;;;;21.60;80.80;;;;;;5068039;28;19998;-67
2022/08/18 01:38:52;;;;;;;;;;;21.70;80.80;;;;;;5074583;28;20343;-67
2022/08/18 01:41:18;;;;;;;;;;;21.70;80.80;;;;;;5070442;28;19921;-67
2022/08/18 01:43:45;;;;;;;;;;;21.70;80.70;;;;;;5066116;28;20104;-67
2022/08/18 01:46:10;;;;;;;;;;;21.70;80.60;;;;;;5069523;28;20434;-67
2022/08/18 01:48:37;;;;;;;;;;;21.70;80.60;;;;;;5073413;28;20011;-67
2022/08/18 01:51:04;;;;;;;;;;;21.60;80.60;;;;;;5076787;28;20340;-67
2022/08/18 01:53:30;;;;;;;;;;;21.60;80.60;;;;;;5068187;28;19999;-67
2022/08/18 01:55:55;;;;;;;;;;;21.60;80.60;;;;;;5067440;28;20011;-68
2022/08/18 01:58:26;;;;;;;;;;;21.50;80.40;;;;;;5068191;28;19921;-60
2022/08/18 02:01:00;;;;;;;;;;;21.50;80.30;;;;;;5061831;28;19913;-61
2022/08/18 02:03:34;;;;;;;;;;;21.50;80.30;;;;;;5067019;28;19912;-63
2022/08/18 02:06:00;;;;;;;;;;;21.50;80.30;;;;;;5079199;28;19931;-68
2022/08/18 02:08:26;;;;;;;;;;;21.50;80.00;;;;;;5070300;28;20391;-67
2022/08/18 02:10:57;;;;;;;;;;;21.60;79.90;;;;;;5070054;28;19908;-67
2022/08/18 02:13:24;;;;;;;;;;;21.60;79.70;;;;;;5072027;28;19915;-66
2022/08/18 02:15:50;;;;;;;;;;;21.50;79.70;;;;;;5078286;28;20328;-61
2022/08/18 02:18:16;;;;;;;;;;;21.50;79.80;;;;;;5071517;28;19940;-68
2022/08/18 02:20:42;;;;;;;;;;;21.50;79.80;;;;;;5088172;28;19947;-67
2022/08/18 02:23:08;;;;;;;;;;;21.40;79.80;;;;;;5077997;28;20336;-67
2022/08/18 02:25:34;;;;;;;;;;;21.40;80.40;;;;;;5072634;28;20030;-60
2022/08/18 02:27:59;;;;;;;;;;;21.40;79.90;;;;;;5069990;28;19908;-68
2022/08/18 02:30:25;;;;;;;;;;;21.40;79.90;;;;;;5068209;28;19924;-68
2022/08/18 02:32:51;;;;;;;;;;;21.40;79.80;;;;;;5069423;28;19973;-67
2022/08/18 02:35:16;;;;;;;;;;;21.40;79.80;;;;;;5067895;28;19920;-61
2022/08/18 02:37:46;;;;;;;;;;;21.40;79.70;;;;;;5069234;28;19981;-60
2022/08/18 02:40:13;;;;;;;;;;;21.40;80.20;;;;;;5063418;28;19908;-60
2022/08/18 02:42:39;;;;;;;;;;;21.40;79.40;;;;;;5069446;28;19909;-61
2022/08/18 02:45:04;;;;;;;;;;;21.40;79.50;;;;;;5068919;28;20255;-60
2022/08/18 02:47:30;;;;;;;;;;;21.40;79.50;;;;;;5070565;28;19920;-61
2022/08/18 02:49:56;;;;;;;;;;;21.40;79.60;;;;;;5074928;28;19911;-60
2022/08/18 02:52:23;;;;;;;;;;;21.40;79.60;;;;;;5068650;28;19919;-62
2022/08/18 02:54:49;;;;;;;;;;;21.40;79.60;;;;;;5072583;28;20422;-68
2022/08/18 02:57:14;;;;;;;;;;;21.40;79.60;;;;;;5068704;28;19982;-61
2022/08/18 02:59:40;;;;;;;;;;;21.40;80.20;;;;;;5069870;28;20347;-61
2022/08/18 03:02:07;;;;;;;;;;;21.30;79.70;;;;;;5077187;28;20071;-62
2022/08/18 03:04:33;;;;;;;;;;;21.30;79.90;;;;;;5078104;28;19999;-62
2022/08/18 03:07:01;;;;;;;;;;;21.30;79.80;;;;;;5068973;28;19954;-68
2022/08/18 03:09:28;;;;;;;;;;;21.30;79.80;;;;;;5068780;28;19999;-61
2022/08/18 03:11:54;;;;;;;;;;;21.20;79.70;;;;;;5068900;28;19917;-67
2022/08/18 03:14:19;;;;;;;;;;;21.30;79.90;;;;;;5069193;28;19919;-61
2022/08/18 03:16:46;;;;;;;;;;;21.20;79.90;;;;;;5069011;28;20256;-60
2022/08/18 03:19:14;;;;;;;;;;;21.30;79.90;;;;;;5069923;28;19915;-61
2022/08/18 03:21:41;;;;;;;;;;;21.30;79.80;;;;;;5068995;28;19920;-61
2022/08/18 03:24:06;;;;;;;;;;;21.40;79.70;;;;;;5069283;28;19912;-61
2022/08/18 03:26:32;;;;;;;;;;;21.40;79.60;;;;;;5067778;28;19931;-61
2022/08/18 03:28:58;;;;;;;;;;;21.50;79.50;;;;;;5072154;28;19919;-60
2022/08/18 03:31:25;;;;;;;;;;;21.50;79.60;;;;;;5073871;28;19917;-62
2022/08/18 03:33:51;;;;;;;;;;;21.50;79.40;;;;;;5068046;28;19955;-60
2022/08/18 03:36:18;;;;;;;;;;;21.50;79.40;;;;;;5066912;28;19978;-60
2022/08/18 03:38:44;;;;;;;;;;;21.50;79.40;;;;;;5068697;28;19919;-61
2022/08/18 03:41:11;;;;;;;;;;;21.50;79.30;;;;;;5070977;28;19919;-61
2022/08/18 03:43:37;;;;;;;;;;;21.50;79.30;;;;;;5072626;28;19913;-61
2022/08/18 03:46:05;;;;;;;;;;;21.50;79.30;;;;;;5082256;28;20474;-61
2022/08/18 03:48:32;;;;;;;;;;;21.40;79.30;;;;;;5072423;28;19931;-61
2022/08/18 03:51:02;;;;;;;;;;;21.40;79.50;;;;;;5074008;28;19912;-60
2022/08/18 03:53:27;;;;;;;;;;;21.40;79.60;;;;;;5076069;28;19916;-60
2022/08/18 03:55:53;;;;;;;;;;;21.40;79.60;;;;;;5064717;28;20014;-61
2022/08/18 03:58:18;;;;;;;;;;;21.40;79.60;;;;;;5067895;28;19920;-60
2022/08/18 04:00:44;;;;;;;;;;;21.40;79.70;;;;;;5070074;28;19920;-60
2022/08/18 04:03:10;;;;;;;;;;;21.40;79.70;;;;;;5077304;28;19912;-60
2022/08/18 04:05:38;;;;;;;;;;;21.40;79.70;;;;;;5067518;28;20477;-67
2022/08/18 04:08:05;;;;;;;;;;;21.40;79.70;;;;;;5069495;28;20302;-67
2022/08/18 04:10:31;;;;;;;;;;;21.40;79.60;;;;;;5070030;28;19920;-68
2022/08/18 04:12:57;;;;;;;;;;;21.40;79.60;;;;;;5069516;28;20288;-67
2022/08/18 04:15:23;;;;;;;;;;;21.40;79.70;;;;;;5076788;28;19920;-67
2022/08/18 04:17:48;;;;;;;;;;;21.40;79.60;;;;;;5079866;28;20011;-62
2022/08/18 04:20:15;;;;;;;;;;;21.40;79.50;;;;;;5074235;28;19948;-61
2022/08/18 04:22:41;;;;;;;;;;;21.50;79.50;;;;;;5065060;28;19920;-61
2022/08/18 04:25:10;;;;;;;;;;;21.40;79.50;;;;;;5067101;28;19921;-61
2022/08/18 04:27:38;;;;;;;;;;;21.40;79.50;;;;;;5069495;28;19912;-61
2022/08/18 04:30:04;;;;;;;;;;;21.40;79.50;;;;;;5072289;28;20423;-61
2022/08/18 04:32:30;;;;;;;;;;;21.40;79.50;;;;;;5075531;28;20413;-61
2022/08/18 04:34:56;;;;;;;;;;;21.40;79.70;;;;;;5079832;28;19921;-61
2022/08/18 04:37:21;;;;;;;;;;;21.30;79.70;;;;;;5070920;28;19927;-61
2022/08/18 04:39:47;;;;;;;;;;;21.30;79.90;;;;;;5071820;28;19916;-61
2022/08/18 04:42:13;;;;;;;;;;;21.30;79.90;;;;;;5071873;28;19909;-61
2022/08/18 04:44:40;;;;;;;;;;;21.30;79.80;;;;;;5071595;28;19962;-61
2022/08/18 04:47:07;;;;;;;;;;;21.40;79.80;;;;;;5070387;28;19908;-61
2022/08/18 04:49:33;;;;;;;;;;;21.30;79.80;;;;;;5071507;28;19974;-60
2022/08/18 04:54:44;;;;;;;;;;;21.30;79.80;;;;;;5050508;28;19923;-60
2022/08/18 04:57:11;;;;;;;;;;;21.30;79.80;;;;;;5071858;28;19917;-67
2022/08/18 04:59:39;;;;;;;;;;;21.30;79.80;;;;;;5072006;28;20003;-67
2022/08/18 05:02:06;;;;;;;;;;;21.30;79.80;;;;;;5071056;28;19921;-67
2022/08/18 05:04:33;;;;;;;;;;;21.30;79.90;;;;;;5066201;28;19973;-66
2022/08/18 05:06:59;;;;;;;;;;;21.30;79.90;;;;;;5067723;28;19924;-67
2022/08/18 05:09:25;;;;;;;;;;;21.30;79.90;;;;;;5070448;28;20340;-61
2022/08/18 05:11:50;;;;;;;;;;;21.30;80.00;;;;;;5068822;28;19948;-61
2022/08/18 05:14:16;;;;;;;;;;;21.30;80.10;;;;;;5068647;28;19951;-61
2022/08/18 05:16:42;;;;;;;;;;;21.30;80.20;;;;;;5079833;28;19921;-61
2022/08/18 05:19:08;;;;;;;;;;;21.30;80.30;;;;;;5074532;28;19917;-61
2022/08/18 05:21:35;;;;;;;;;;;21.30;80.30;;;;;;5083442;28;20272;-61
2022/08/18 05:24:01;;;;;;;;;;;21.40;80.80;;;;;;5072425;28;20012;-61
2022/08/18 05:26:27;;;;;;;;;;;21.30;80.30;;;;;;5069851;28;20279;-67
2022/08/18 05:28:53;;;;;;;;;;;21.30;80.50;;;;;;5082606;28;19912;-67
2022/08/18 05:31:20;;;;;;;;;;;21.20;80.60;;;;;;5087684;28;20277;-67
2022/08/18 05:33:46;;;;;;;;;;;21.20;80.70;;;;;;5086281;28;20529;-67
2022/08/18 05:36:23;;;;;;;;;;;21.20;80.80;;;;;;5073567;28;19927;-67
2022/08/18 05:38:55;;;;;;;;;;;21.20;80.90;;;;;;5077808;28;20291;-67
2022/08/18 05:41:20;;;;;;;;;;;21.20;81.10;;;;;;5085348;28;20342;-67
2022/08/18 05:43:47;;;;;;;;;;;21.10;81.10;;;;;;5073427;28;19958;-67
2022/08/18 05:46:13;;;;;;;;;;;21.10;81.30;;;;;;5071948;28;19915;-67
2022/08/18 05:48:39;;;;;;;;;;;21.10;81.30;;;;;;5074877;28;19917;-67
2022/08/18 05:51:18;;;;;;;;;;;21.20;81.10;;;;;;5069757;28;19930;-67
2022/08/18 05:56:46;;;;;;;;;;;21.30;80.80;;;;;;5060618;28;19920;-67
2022/08/18 05:59:18;;;;;;;;;;;21.40;80.80;;;;;;5068600;28;19913;-67
2022/08/18 06:01:50;;;;;;;;;;;21.40;80.70;;;;;;5074946;28;19919;-67
2022/08/18 06:04:29;;;;;;;;;;;21.40;80.70;;;;;;5081110;28;19961;-68
2022/08/18 06:06:56;;;;;;;;;;;21.40;80.70;;;;;;5088700;28;20268;-68
2022/08/18 06:09:27;;;;;;;;;;;21.50;80.60;;;;;;5071081;28;19966;-68
2022/08/18 06:11:57;;;;;;;;;;;21.60;80.40;;;;;;5069009;28;19919;-68
2022/08/18 06:14:23;;;;;;;;;;;21.60;80.20;;;;;;5069110;28;20381;-68
2022/08/18 06:16:48;;;;;;;;;;;21.70;80.20;;;;;;5078355;28;20038;-68
2022/08/18 06:19:33;;;;;;;;;;;21.70;80.00;;;;;;5072171;28;19916;-68
2022/08/18 06:22:06;;;;;;;;;;;21.70;79.90;;;;;;5067315;28;19916;-68
2022/08/18 06:24:32;;;;;;;;;;;21.70;79.90;;;;;;5066718;28;19966;-68
2022/08/18 06:26:57;;;;;;;;;;;21.70;79.90;;;;;;5066274;28;20387;-60
2022/08/18 06:29:35;;;;;;;;;;;21.70;79.80;;;;;;5067095;28;19919;-60
2022/08/18 06:32:13;;;;;;;;;;;21.80;79.80;;;;;;5068774;28;19917;-60
2022/08/18 06:34:47;;;;;;;;;;;21.80;79.60;;;;;;5069625;28;19908;-60
2022/08/18 06:37:22;;;;;;;;;;;21.90;79.60;;;;;;5067807;28;20444;-68
2022/08/18 06:39:49;;;;;;;;;;;21.90;79.40;;;;;;5068737;28;19916;-68
2022/08/18 06:42:20;;;;;;;;;;;22.00;79.10;;;;;;5066547;28;20024;-68
2022/08/18 06:44:54;;;;;;;;;;;22.10;79.70;;;;;;5068242;28;20330;-60
2022/08/18 06:47:28;;;;;;;;;;;22.10;79.20;;;;;;5068457;28;19920;-59
2022/08/18 06:50:17;;;;;;;;;;;22.10;79.10;;;;;;5064425;28;19912;-68
2022/08/18 06:52:56;;;;;;;;;;;22.20;78.80;;;;;;5053721;28;20327;-67
2022/08/18 06:55:39;;;;;;;;;;;22.20;78.70;;;;;;5062908;28;20551;-67
2022/08/18 06:58:18;;;;;;;;;;;22.20;78.80;;;;;;5067532;28;19916;-68
2022/08/18 07:01:04;;;;;;;;;;;22.30;78.70;;;;;;5068879;28;19916;-68
2022/08/18 07:03:35;;;;;;;;;;;22.50;78.50;;;;;;5061804;28;20335;-68
2022/08/18 07:06:23;;;;;;;;;;;22.60;78.10;;;;;;5064703;28;20329;-67
2022/08/18 07:08:50;;;;;;;;;;;22.80;77.80;;;;;;5063496;28;19916;-68
2022/08/18 07:11:24;;;;;;;;;;;22.90;77.50;;;;;;5066474;28;20015;-68
2022/08/18 07:13:51;;;;;;;;;;;23.00;77.30;;;;;;5064174;28;19921;-68
2022/08/18 07:16:37;;;;;;;;;;;23.10;77.00;;;;;;5079256;28;20393;-68
2022/08/18 07:19:25;;;;;;;;;;;23.10;76.50;;;;;;5071595;28;19920;-68
2022/08/18 07:22:11;;;;;;;;;;;23.00;76.50;;;;;;5082294;28;19922;-68
2022/08/18 07:24:41;;;;;;;;;;;22.90;76.70;;;;;;5072497;28;19920;-60
2022/08/18 07:27:10;;;;;;;;;;;22.80;76.80;;;;;;5071134;28;19934;-59
2022/08/18 07:29:54;;;;;;;;;;;22.70;76.90;;;;;;5064343;28;19958;-60
2022/08/18 07:32:20;;;;;;;;;;;22.70;77.10;;;;;;5062215;28;19916;-60
2022/08/18 07:34:50;;;;;;;;;;;22.70;77.30;;;;;;5071971;28;19916;-68
2022/08/18 07:37:18;;;;;;;;;;;22.70;77.00;;;;;;5071566;28;19978;-59
2022/08/18 07:39:49;;;;;;;;;;;22.80;76.80;;;;;;5066885;28;19939;-59
2022/08/18 07:42:34;;;;;;;;;;;23.00;76.60;;;;;;5079789;28;20408;-67
2022/08/18 07:45:18;;;;;;;;;;;23.20;75.90;;;;;;5042194;28;19916;-60
2022/08/18 07:48:02;;;;;;;;;;;23.20;75.20;;;;;;5080027;28;19916;-60
2022/08/18 07:50:34;;;;;;;;;;;23.20;75.20;;;;;;5067416;28;19916;-60
2022/08/18 07:53:25;;;;;;;;;;;23.20;75.50;;;;;;5067025;28;19928;-60
2022/08/18 07:55:55;;;;;;;;;;;23.30;75.30;;;;;;5061159;28;20015;-60
2022/08/18 07:58:28;;;;;;;;;;;23.40;74.60;;;;;;5064329;28;19956;-59
2022/08/18 08:00:57;;;;;;;;;;;23.40;74.70;;;;;;5064458;28;19916;-59
2022/08/18 08:03:41;;;;;;;;;;;23.50;74.70;;;;;;5066424;28;20362;-60
2022/08/18 08:06:10;;;;;;;;;;;23.70;74.50;;;;;;5069333;28;20394;-60
2022/08/18 08:08:41;;;;;;;;;;;23.90;74.00;;;;;;5069265;28;19916;-67
2022/08/18 08:11:12;;;;;;;;;;;24.10;73.60;;;;;;5059101;28;19913;-59
2022/08/18 08:13:41;;;;;;;;;;;24.20;73.10;;;;;;5071636;28;19966;-67
2022/08/18 08:16:18;;;;;;;;;;;24.30;72.90;;;;;;5073720;28;19921;-60
2022/08/18 08:19:03;;;;;;;;;;;24.20;72.70;;;;;;5077546;28;19969;-60
2022/08/18 08:21:31;;;;;;;;;;;24.20;72.30;;;;;;5068120;28;19942;-60
2022/08/18 08:24:19;;;;;;;;;;;24.10;72.60;;;;;;5061752;28;19916;-67
2022/08/18 08:26:46;;;;;;;;;;;24.10;72.50;;;;;;5070000;28;19908;-68
2022/08/18 08:29:22;;;;;;;;;;;24.10;72.50;;;;;;5085207;28;19916;-67
2022/08/18 08:31:48;;;;;;;;;;;24.20;72.40;;;;;;5065038;28;19916;-67
2022/08/18 08:34:13;;;;;;;;;;;24.20;72.20;;;;;;5075642;28;19958;-67
2022/08/18 08:36:40;;;;;;;;;;;24.30;72.00;;;;;;5081948;28;19920;-67
2022/08/18 08:39:11;;;;;;;;;;;24.40;71.50;;;;;;5082009;28;20334;-60
2022/08/18 08:41:57;;;;;;;;;;;24.60;71.00;;;;;;5084513;28;20295;-60
2022/08/18 08:44:33;;;;;;;;;;;24.90;70.80;;;;;;5080209;28;20270;-67
2022/08/18 08:47:22;;;;;;;;;;;25.00;70.10;;;;;;5075013;28;19930;-66
2022/08/18 08:49:51;;;;;;;;;;;25.00;69.80;;;;;;5069577;28;20680;-66
2022/08/18 08:52:23;;;;;;;;;;;24.90;69.90;;;;;;5072854;28;19916;-67
2022/08/18 08:54:59;;;;;;;;;;;24.70;70.00;;;;;;5078250;28;19923;-67
2022/08/18 08:57:43;;;;;;;;;;;24.60;70.30;;;;;;5066606;28;19947;-67
2022/08/18 09:00:13;;;;;;;;;;;24.50;70.30;;;;;;5069882;28;19912;-67
2022/08/18 09:02:39;;;;;;;;;;;24.50;70.30;;;;;;5068729;28;19917;-67
2022/08/18 09:05:08;;;;;;;;;;;24.70;70.20;;;;;;5067387;28;19984;-67
2022/08/18 09:07:39;;;;;;;;;;;24.90;69.90;;;;;;5068454;28;19921;-67
2022/08/18 09:10:16;;;;;;;;;;;25.20;69.20;;;;;;5068569;28;19921;-59
2022/08/18 09:12:51;;;;;;;;;;;25.40;68.90;;;;;;5070045;28;19913;-60
2022/08/18 09:15:35;;;;;;;;;;;25.50;68.50;;;;;;5066224;28;19912;-59
2022/08/18 09:18:19;;;;;;;;;;;25.70;68.00;;;;;;5067641;28;19917;-59
2022/08/18 09:21:07;;;;;;;;;;;25.90;67.30;;;;;;5066657;28;19913;-60
2022/08/18 09:23:43;;;;;;;;;;;26.10;66.90;;;;;;5069050;28;20403;-67
2022/08/18 09:26:37;;;;;;;;;;;26.40;66.40;;;;;;5066912;28;19923;-67
2022/08/18 09:29:17;;;;;;;;;;;26.50;66.20;;;;;;5069810;28;19913;-67
2022/08/18 09:31:44;;;;;;;;;;;26.60;65.80;;;;;;5064949;28;19923;-59
2022/08/18 09:34:24;;;;;;;;;;;26.50;65.20;;;;;;5059651;28;20264;-59
2022/08/18 09:36:52;;;;;;;;;;;26.40;65.30;;;;;;5069120;28;19920;-59
2022/08/18 09:42:13;;;;;;;;;;;26.00;65.40;;;;;;5069796;28;19923;-66
2022/08/18 09:44:45;;;;;;;;;;;25.80;65.90;;;;;;5070774;28;19912;-66
2022/08/18 09:47:31;;;;;;;;;;;25.70;66.30;;;;;;5070291;28;19930;-66
2022/08/18 09:50:02;;;;;;;;;;;25.60;66.10;;;;;;5061895;28;19915;-66
2022/08/18 09:52:34;;;;;;;;;;;25.50;66.20;;;;;;5068958;28;20344;-66
2022/08/18 09:55:01;;;;;;;;;;;25.40;66.50;;;;;;5059277;28;19915;-66
2022/08/18 09:57:28;;;;;;;;;;;25.30;66.80;;;;;;5066643;28;19912;-60
2022/08/18 09:59:57;;;;;;;;;;;25.30;66.80;;;;;;5067153;28;19924;-60
2022/08/18 10:02:26;;;;;;;;;;;25.40;66.70;;;;;;5063832;28;20276;-66
2022/08/18 10:05:10;;;;;;;;;;;25.40;66.30;;;;;;5080765;28;19912;-66
2022/08/18 10:07:38;;;;;;;;;;;25.40;65.80;;;;;;5068528;28;19924;-60
2022/08/18 10:10:06;;;;;;;;;;;25.40;65.20;;;;;;5067337;28;19985;-66
2022/08/18 10:12:52;;;;;;;;;;;25.40;65.20;;;;;;5069046;28;20291;-66
2022/08/18 10:15:36;;;;;;;;;;;25.70;65.50;;;;;;5079206;28;19912;-60
2022/08/18 10:18:02;;;;;;;;;;;26.10;64.60;;;;;;5065665;28;19963;-60
2022/08/18 10:20:37;;;;;;;;;;;26.50;64.00;;;;;;5066760;28;19939;-60
2022/08/18 10:23:06;;;;;;;;;;;26.60;63.00;;;;;;5067637;28;19919;-60
2022/08/18 10:25:31;;;;;;;;;;;26.60;63.10;;;;;;5069750;28;19920;-60
2022/08/18 10:27:57;;;;;;;;;;;26.60;63.50;;;;;;5065716;28;19916;-66
2022/08/18 10:30:29;;;;;;;;;;;26.60;63.40;;;;;;5070779;28;20525;-66
2022/08/18 10:32:56;;;;;;;;;;;26.50;63.70;;;;;;5067311;28;20018;-66
2022/08/18 10:35:34;;;;;;;;;;;26.40;64.00;;;;;;5077540;28;19916;-66
2022/08/18 10:38:02;;;;;;;;;;;26.20;64.30;;;;;;5067455;28;20371;-66
2022/08/18 10:40:28;;;;;;;;;;;26.00;64.40;;;;;;5082311;28;20014;-66
2022/08/18 10:43:06;;;;;;;;;;;25.90;64.80;;;;;;5068133;28;20387;-66
2022/08/18 10:45:35;;;;;;;;;;;25.70;65.10;;;;;;5066371;28;20441;-66
2022/08/18 10:48:03;;;;;;;;;;;25.70;65.50;;;;;;5060191;28;19913;-66
2022/08/18 10:50:31;;;;;;;;;;;25.60;65.50;;;;;;5062780;28;20042;-66
2022/08/18 10:53:04;;;;;;;;;;;25.70;65.60;;;;;;5068318;28;19964;-60
2022/08/18 10:55:53;;;;;;;;;;;25.80;66.20;;;;;;5061700;28;19932;-60
2022/08/18 10:58:22;;;;;;;;;;;25.90;65.50;;;;;;5071020;28;20298;-60
2022/08/18 11:01:26;;;;;;;;;;;26.00;65.40;;;;;;5068489;28;20336;-60
2022/08/18 11:04:09;;;;;;;;;;;26.10;65.20;;;;;;5028287;28;19913;-60
2022/08/18 11:06:55;;;;;;;;;;;26.10;65.10;;;;;;5025408;28;19932;-67
2022/08/18 11:09:25;;;;;;;;;;;26.20;65.00;;;;;;5047556;28;20325;-67
2022/08/18 11:11:52;;;;;;;;;;;26.30;65.00;;;;;;5066449;28;19948;-67
2022/08/18 11:14:30;;;;;;;;;;;26.30;64.60;;;;;;5078348;28;19919;-67
2022/08/18 11:16:55;;;;;;;;;;;26.30;64.70;;;;;;5075818;28;20002;-66
2022/08/18 11:19:21;;;;;;;;;;;26.30;64.70;;;;;;5067864;28;20566;-67
2022/08/18 11:21:49;;;;;;;;;;;26.10;64.50;;;;;;5067204;28;20007;-67
2022/08/18 11:24:20;;;;;;;;;;;26.10;64.70;;;;;;5069912;28;19928;-67
2022/08/18 11:26:47;;;;;;;;;;;26.00;64.00;;;;;;5068670;28;19995;-68
2022/08/18 11:29:27;;;;;;;;;;;25.90;64.20;;;;;;5083233;28;19912;-67
2022/08/18 11:32:16;;;;;;;;;;;25.90;64.40;;;;;;5060013;28;20355;-60
2022/08/18 11:34:48;;;;;;;;;;;25.90;64.30;;;;;;5049144;28;19952;-60
2022/08/18 11:37:32;;;;;;;;;;;25.90;64.40;;;;;;5072219;28;19917;-60
2022/08/18 11:39:59;;;;;;;;;;;25.90;64.20;;;;;;5062576;28;19912;-61
2022/08/18 11:42:29;;;;;;;;;;;25.90;64.20;;;;;;5061295;28;19916;-61
2022/08/18 11:45:01;;;;;;;;;;;26.00;64.20;;;;;;5062927;28;20294;-60
2022/08/18 11:47:27;;;;;;;;;;;26.00;64.20;;;;;;5069747;28;20350;-60
2022/08/18 11:50:11;;;;;;;;;;;26.00;64.10;;;;;;5065483;28;19916;-61
2022/08/18 11:52:48;;;;;;;;;;;26.00;63.60;;;;;;5070330;28;20348;-60
2022/08/18 11:55:20;;;;;;;;;;;26.00;63.80;;;;;;5069472;28;19962;-60
2022/08/18 11:57:53;;;;;;;;;;;26.00;63.40;;;;;;5066385;28;20011;-61
2022/08/18 12:00:35;;;;;;;;;;;26.00;63.40;;;;;;5067047;28;19916;-61
2022/08/18 12:03:01;;;;;;;;;;;26.00;63.50;;;;;;5072100;28;19912;-61
2022/08/18 12:05:27;;;;;;;;;;;26.00;63.20;;;;;;5075805;28;19925;-61
2022/08/18 12:07:53;;;;;;;;;;;26.10;63.10;;;;;;5067655;28;19950;-61
2022/08/18 12:10:21;;;;;;;;;;;26.10;63.30;;;;;;5069962;28;19964;-60
2022/08/18 12:12:48;;;;;;;;;;;26.20;63.30;;;;;;5068522;28;20294;-61
2022/08/18 12:15:15;;;;;;;;;;;26.30;63.30;;;;;;5069830;28;20014;-60
2022/08/18 12:17:43;;;;;;;;;;;26.40;62.90;;;;;;5071797;28;20385;-60
2022/08/18 12:20:09;;;;;;;;;;;26.40;62.20;;;;;;5077983;28;19913;-61
2022/08/18 12:22:35;;;;;;;;;;;26.40;62.40;;;;;;5074862;28;19921;-60
2022/08/18 12:25:03;;;;;;;;;;;26.50;62.60;;;;;;5079574;28;19923;-67
2022/08/18 12:27:32;;;;;;;;;;;26.50;62.60;;;;;;5067770;28;19916;-67
2022/08/18 12:30:00;;;;;;;;;;;26.50;62.40;;;;;;5069085;28;20013;-67
2022/08/18 12:32:27;;;;;;;;;;;26.50;62.50;;;;;;5074900;28;19912;-66
2022/08/18 12:34:53;;;;;;;;;;;26.40;62.50;;;;;;5070627;28;20477;-66
2022/08/18 12:37:23;;;;;;;;;;;26.40;62.60;;;;;;5067168;28;19916;-67
2022/08/18 12:39:49;;;;;;;;;;;26.50;62.80;;;;;;5074980;28;19913;-67
2022/08/18 12:42:15;;;;;;;;;;;26.60;62.70;;;;;;5075523;28;19923;-68
2022/08/18 12:44:41;;;;;;;;;;;26.60;62.60;;;;;;5079874;28;19931;-61
2022/08/18 12:47:11;;;;;;;;;;;26.70;62.20;;;;;;5064995;28;19912;-61
2022/08/18 12:49:36;;;;;;;;;;;26.70;62.10;;;;;;5075327;28;19916;-60
2022/08/18 12:52:02;;;;;;;;;;;26.60;61.70;;;;;;5071700;28;19923;-61
2022/08/18 12:54:27;;;;;;;;;;;26.60;60.80;;;;;;5069762;28;19913;-67
2022/08/18 12:56:54;;;;;;;;;;;26.40;61.10;;;;;;5065768;28;19925;-60
2022/08/18 12:59:20;;;;;;;;;;;26.40;61.60;;;;;;5079274;28;19952;-61
2022/08/18 13:01:45;;;;;;;;;;;26.30;61.80;;;;;;5068837;28;19993;-61
2022/08/18 13:04:11;;;;;;;;;;;26.30;62.00;;;;;;5063783;28;20244;-60
2022/08/18 13:06:39;;;;;;;;;;;26.30;62.20;;;;;;5067429;28;20367;-60
2022/08/18 13:09:06;;;;;;;;;;;26.30;62.40;;;;;;5068775;28;19916;-67
2022/08/18 13:11:31;;;;;;;;;;;26.30;62.20;;;;;;5068532;28;19912;-67
2022/08/18 13:13:57;;;;;;;;;;;26.20;61.70;;;;;;5072795;28;19919;-66
2022/08/18 13:16:23;;;;;;;;;;;26.10;61.60;;;;;;5072268;28;20470;-67
2022/08/18 13:18:49;;;;;;;;;;;26.00;61.90;;;;;;5073407;28;19916;-67
2022/08/18 13:21:16;;;;;;;;;;;26.00;62.10;;;;;;5056369;28;19931;-67
2022/08/18 13:23:42;;;;;;;;;;;26.10;62.30;;;;;;5075458;28;19991;-61
2022/08/18 13:26:11;;;;;;;;;;;26.10;62.40;;;;;;5083407;28;19916;-60
2022/08/18 13:28:37;;;;;;;;;;;26.10;62.20;;;;;;5068498;28;19924;-60
2022/08/18 13:31:03;;;;;;;;;;;26.10;62.30;;;;;;5066886;28;19944;-60
2022/08/18 13:33:31;;;;;;;;;;;26.20;62.40;;;;;;5069438;28;20113;-60
2022/08/18 13:35:57;;;;;;;;;;;26.20;62.30;;;;;;5058846;28;19927;-60
2022/08/18 13:38:24;;;;;;;;;;;26.10;61.80;;;;;;5062374;28;19912;-67
2022/08/18 13:40:50;;;;;;;;;;;26.10;61.80;;;;;;5068374;28;19923;-60
2022/08/18 13:43:17;;;;;;;;;;;26.20;62.00;;;;;;5056613;28;19913;-61
2022/08/18 13:45:43;;;;;;;;;;;26.20;62.10;;;;;;5066474;28;19936;-62
2022/08/18 13:48:09;;;;;;;;;;;26.20;62.10;;;;;;5071248;28;20317;-61
2022/08/18 13:50:37;;;;;;;;;;;26.30;62.20;;;;;;5068043;28;19916;-66
2022/08/18 13:53:03;;;;;;;;;;;26.40;62.10;;;;;;5066829;28;19951;-67
2022/08/18 13:55:28;;;;;;;;;;;26.40;62.00;;;;;;5064032;28;19947;-60
2022/08/18 13:57:54;;;;;;;;;;;26.40;61.90;;;;;;5067774;28;20433;-66
2022/08/18 14:00:21;;;;;;;;;;;26.40;61.70;;;;;;5070139;28;19909;-66
2022/08/18 14:02:49;;;;;;;;;;;26.40;61.60;;;;;;5068077;28;20551;-66
2022/08/18 14:05:15;;;;;;;;;;;26.50;61.60;;;;;;5064806;28;20537;-66
2022/08/18 14:07:41;;;;;;;;;;;26.50;61.50;;;;;;5060459;28;19966;-66
2022/08/18 14:10:07;;;;;;;;;;;26.60;61.50;;;;;;5064682;28;20384;-66
2022/08/18 14:12:34;;;;;;;;;;;26.70;61.40;;;;;;5057073;28;19916;-60
2022/08/18 14:14:59;;;;;;;;;;;26.90;61.20;;;;;;5062139;28;19963;-65
2022/08/18 14:17:25;;;;;;;;;;;27.00;61.00;;;;;;5074409;28;20359;-66
2022/08/18 14:28:04;;;;;;;;;;;27.40;59.40;;;;;;5073048;28;19973;-66
2022/08/18 14:30:30;;;;;;;;;;;27.60;58.80;;;;;;5071269;28;19941;-66
2022/08/18 14:32:56;;;;;;;;;;;27.70;58.70;;;;;;5071731;28;19917;-68
2022/08/18 14:35:22;;;;;;;;;;;27.90;57.60;;;;;;5074672;28;19913;-67
2022/08/18 14:37:47;;;;;;;;;;;28.30;57.40;;;;;;5073583;28;20263;-61
2022/08/18 14:40:14;;;;;;;;;;;28.90;57.00;;;;;;5064081;28;19916;-61
2022/08/18 14:42:41;;;;;;;;;;;29.40;56.00;;;;;;5078420;28;19916;-66
2022/08/18 14:45:07;;;;;;;;;;;29.80;55.40;;;;;;5066617;28;20011;-67
2022/08/18 14:47:33;;;;;;;;;;;30.10;55.00;;;;;;5058948;28;19920;-67
2022/08/18 14:49:59;;;;;;;;;;;30.40;54.20;;;;;;5063177;28;19921;-60
2022/08/18 14:52:26;;;;;;;;;;;30.50;54.00;;;;;;5066254;28;19919;-60
2022/08/18 14:54:52;;;;;;;;;;;30.60;53.70;;;;;;5067641;28;20355;-60